sensor_id;sensor_type;location;lat;lon;timestamp;P1;durP1;ratioP1;P2;durP2;ratioP2
5549;SDS011;2798;42.716;23.256;2023-04-24T00:00:32;8.03;;;5.57;;
5549;SDS011;2798;42.716;23.256;2023-04-24T00:02:57;7.53;;;5.30;;
5549;SDS011;2798;42.716;23.256;2023-04-24T00:05:23;6.03;;;5.43;;
5549;SDS011;2798;42.716;23.256;2023-04-24T00:07:48;7.60;;;4.97;;
5549;SDS011;2798;42.716;23.256;2023-04-24T00:10:13;8.60;;;5.77;;
5549;SDS011;2798;42.716;23.256;2023-04-24T00:12:39;5.90;;;4.80;;
5549;SDS011;2798;42.716;23.256;2023-04-24T00:15:04;6.57;;;4.70;;
5549;SDS011;2798;42.716;23.256;2023-04-24T00:17:30;7.60;;;5.20;;
5549;SDS011;2798;42.716;23.256;2023-04-24T00:19:55;6.80;;;4.97;;
5549;SDS011;2798;42.716;23.256;2023-04-24T00:22:26;6.53;;;4.70;;
5549;SDS011;2798;42.716;23.256;2023-04-24T00:24:51;6.67;;;4.97;;
5549;SDS011;2798;42.716;23.256;2023-04-24T00:27:17;5.83;;;5.17;;
5549;SDS011;2798;42.716;23.256;2023-04-24T00:29:42;6.40;;;5.17;;
5549;SDS011;2798;42.716;23.256;2023-04-24T00:32:07;6.07;;;4.97;;
5549;SDS011;2798;42.716;23.256;2023-04-24T00:34:32;5.77;;;5.00;;
5549;SDS011;2798;42.716;23.256;2023-04-24T00:36:58;5.27;;;4.60;;
5549;SDS011;2798;42.716;23.256;2023-04-24T00:39:23;6.47;;;5.63;;
5549;SDS011;2798;42.716;23.256;2023-04-24T00:41:48;6.80;;;4.90;;
5549;SDS011;2798;42.716;23.256;2023-04-24T00:44:15;5.20;;;4.50;;
5549;SDS011;2798;42.716;23.256;2023-04-24T00:46:41;5.23;;;4.60;;
5549;SDS011;2798;42.716;23.256;2023-04-24T00:49:07;7.10;;;4.83;;
5549;SDS011;2798;42.716;23.256;2023-04-24T00:51:32;7.50;;;5.03;;
5549;SDS011;2798;42.716;23.256;2023-04-24T00:53:58;5.07;;;4.30;;
5549;SDS011;2798;42.716;23.256;2023-04-24T00:56:23;5.57;;;4.57;;
5549;SDS011;2798;42.716;23.256;2023-04-24T00:58:49;7.57;;;5.27;;
5549;SDS011;2798;42.716;23.256;2023-04-24T01:01:14;7.70;;;5.00;;
5549;SDS011;2798;42.716;23.256;2023-04-24T01:03:40;5.43;;;4.60;;
5549;SDS011;2798;42.716;23.256;2023-04-24T01:06:05;5.67;;;4.90;;
5549;SDS011;2798;42.716;23.256;2023-04-24T01:08:30;6.90;;;5.13;;
5549;SDS011;2798;42.716;23.256;2023-04-24T01:10:57;5.53;;;4.90;;
5549;SDS011;2798;42.716;23.256;2023-04-24T01:13:22;6.80;;;4.73;;
5549;SDS011;2798;42.716;23.256;2023-04-24T01:15:47;5.53;;;5.03;;
5549;SDS011;2798;42.716;23.256;2023-04-24T01:18:13;7.20;;;4.87;;
5549;SDS011;2798;42.716;23.256;2023-04-24T01:20:39;5.50;;;4.73;;
5549;SDS011;2798;42.716;23.256;2023-04-24T01:23:05;7.83;;;5.83;;
5549;SDS011;2798;42.716;23.256;2023-04-24T01:25:30;10.20;;;5.23;;
5549;SDS011;2798;42.716;23.256;2023-04-24T01:27:56;6.13;;;4.47;;
5549;SDS011;2798;42.716;23.256;2023-04-24T01:30:21;12.70;;;5.13;;
5549;SDS011;2798;42.716;23.256;2023-04-24T01:32:46;9.50;;;5.70;;
5549;SDS011;2798;42.716;23.256;2023-04-24T01:35:11;6.20;;;5.10;;
5549;SDS011;2798;42.716;23.256;2023-04-24T01:37:37;9.00;;;5.07;;
5549;SDS011;2798;42.716;23.256;2023-04-24T01:40:03;5.90;;;4.53;;
5549;SDS011;2798;42.716;23.256;2023-04-24T01:42:29;8.40;;;4.97;;
5549;SDS011;2798;42.716;23.256;2023-04-24T01:44:54;9.27;;;5.53;;
5549;SDS011;2798;42.716;23.256;2023-04-24T01:47:20;8.60;;;4.63;;
5549;SDS011;2798;42.716;23.256;2023-04-24T01:49:45;5.23;;;4.67;;
5549;SDS011;2798;42.716;23.256;2023-04-24T01:52:10;5.37;;;4.43;;
5549;SDS011;2798;42.716;23.256;2023-04-24T01:54:36;8.23;;;4.93;;
5549;SDS011;2798;42.716;23.256;2023-04-24T01:57:01;5.03;;;4.57;;
5549;SDS011;2798;42.716;23.256;2023-04-24T01:59:27;5.90;;;4.97;;
5549;SDS011;2798;42.716;23.256;2023-04-24T02:01:53;5.33;;;4.80;;
5549;SDS011;2798;42.716;23.256;2023-04-24T02:04:18;8.87;;;5.27;;
5549;SDS011;2798;42.716;23.256;2023-04-24T02:06:43;5.27;;;4.77;;
5549;SDS011;2798;42.716;23.256;2023-04-24T02:09:09;8.90;;;5.03;;
5549;SDS011;2798;42.716;23.256;2023-04-24T02:11:35;5.67;;;4.90;;
5549;SDS011;2798;42.716;23.256;2023-04-24T02:14:01;6.50;;;5.13;;
5549;SDS011;2798;42.716;23.256;2023-04-24T02:16:26;6.33;;;5.00;;
5549;SDS011;2798;42.716;23.256;2023-04-24T02:18:55;6.20;;;4.40;;
5549;SDS011;2798;42.716;23.256;2023-04-24T02:21:20;5.80;;;4.60;;
5549;SDS011;2798;42.716;23.256;2023-04-24T02:23:45;8.33;;;4.90;;
5549;SDS011;2798;42.716;23.256;2023-04-24T02:26:11;6.80;;;5.17;;
5549;SDS011;2798;42.716;23.256;2023-04-24T02:28:36;7.20;;;4.93;;
5549;SDS011;2798;42.716;23.256;2023-04-24T02:31:01;7.53;;;5.37;;
5549;SDS011;2798;42.716;23.256;2023-04-24T02:33:27;6.33;;;4.90;;
5549;SDS011;2798;42.716;23.256;2023-04-24T02:35:52;5.80;;;4.53;;
5549;SDS011;2798;42.716;23.256;2023-04-24T02:38:17;6.50;;;4.70;;
5549;SDS011;2798;42.716;23.256;2023-04-24T02:40:42;7.33;;;5.23;;
5549;SDS011;2798;42.716;23.256;2023-04-24T02:43:08;5.70;;;4.77;;
5549;SDS011;2798;42.716;23.256;2023-04-24T02:45:33;8.10;;;4.37;;
5549;SDS011;2798;42.716;23.256;2023-04-24T02:47:59;5.37;;;4.63;;
5549;SDS011;2798;42.716;23.256;2023-04-24T02:50:25;7.23;;;4.80;;
5549;SDS011;2798;42.716;23.256;2023-04-24T02:52:50;5.10;;;4.60;;
5549;SDS011;2798;42.716;23.256;2023-04-24T02:55:15;5.70;;;4.97;;
5549;SDS011;2798;42.716;23.256;2023-04-24T02:57:40;6.60;;;5.43;;
5549;SDS011;2798;42.716;23.256;2023-04-24T03:00:06;9.60;;;5.47;;
5549;SDS011;2798;42.716;23.256;2023-04-24T03:02:32;6.97;;;4.80;;
5549;SDS011;2798;42.716;23.256;2023-04-24T03:04:57;6.97;;;4.90;;
5549;SDS011;2798;42.716;23.256;2023-04-24T03:07:22;6.23;;;4.77;;
5549;SDS011;2798;42.716;23.256;2023-04-24T03:09:49;7.40;;;5.67;;
5549;SDS011;2798;42.716;23.256;2023-04-24T03:12:14;6.53;;;4.67;;
5549;SDS011;2798;42.716;23.256;2023-04-24T03:14:39;11.33;;;5.17;;
5549;SDS011;2798;42.716;23.256;2023-04-24T03:17:04;5.90;;;5.30;;
5549;SDS011;2798;42.716;23.256;2023-04-24T03:19:30;7.00;;;4.97;;
5549;SDS011;2798;42.716;23.256;2023-04-24T03:21:55;8.80;;;5.10;;
5549;SDS011;2798;42.716;23.256;2023-04-24T03:24:20;6.07;;;5.47;;
5549;SDS011;2798;42.716;23.256;2023-04-24T03:26:46;8.50;;;5.70;;
5549;SDS011;2798;42.716;23.256;2023-04-24T03:29:11;5.97;;;5.03;;
5549;SDS011;2798;42.716;23.256;2023-04-24T03:31:36;7.33;;;5.03;;
5549;SDS011;2798;42.716;23.256;2023-04-24T03:34:01;7.70;;;4.80;;
5549;SDS011;2798;42.716;23.256;2023-04-24T03:36:27;5.90;;;5.00;;
5549;SDS011;2798;42.716;23.256;2023-04-24T03:38:52;7.47;;;5.17;;
5549;SDS011;2798;42.716;23.256;2023-04-24T03:41:17;5.80;;;4.67;;
5549;SDS011;2798;42.716;23.256;2023-04-24T03:43:43;8.63;;;4.70;;
5549;SDS011;2798;42.716;23.256;2023-04-24T03:46:09;5.27;;;4.67;;
5549;SDS011;2798;42.716;23.256;2023-04-24T03:48:35;8.90;;;5.80;;
5549;SDS011;2798;42.716;23.256;2023-04-24T03:51:00;7.03;;;4.93;;
5549;SDS011;2798;42.716;23.256;2023-04-24T03:53:25;7.77;;;5.53;;
5549;SDS011;2798;42.716;23.256;2023-04-24T03:55:51;4.93;;;4.40;;
5549;SDS011;2798;42.716;23.256;2023-04-24T03:58:17;6.13;;;4.87;;
5549;SDS011;2798;42.716;23.256;2023-04-24T04:00:42;5.83;;;4.70;;
5549;SDS011;2798;42.716;23.256;2023-04-24T04:03:09;7.17;;;5.03;;
5549;SDS011;2798;42.716;23.256;2023-04-24T04:05:34;8.10;;;5.23;;
5549;SDS011;2798;42.716;23.256;2023-04-24T04:08:00;6.50;;;4.93;;
5549;SDS011;2798;42.716;23.256;2023-04-24T04:10:25;9.17;;;5.33;;
5549;SDS011;2798;42.716;23.256;2023-04-24T04:12:50;8.90;;;5.00;;
5549;SDS011;2798;42.716;23.256;2023-04-24T04:15:15;6.03;;;4.73;;
5549;SDS011;2798;42.716;23.256;2023-04-24T04:17:41;5.80;;;5.17;;
5549;SDS011;2798;42.716;23.256;2023-04-24T04:20:06;5.73;;;5.13;;
5549;SDS011;2798;42.716;23.256;2023-04-24T04:22:35;6.23;;;5.53;;
5549;SDS011;2798;42.716;23.256;2023-04-24T04:25:00;10.90;;;5.80;;
5549;SDS011;2798;42.716;23.256;2023-04-24T04:27:26;8.60;;;5.63;;
5549;SDS011;2798;42.716;23.256;2023-04-24T04:29:51;5.87;;;5.27;;
5549;SDS011;2798;42.716;23.256;2023-04-24T04:32:17;12.13;;;5.83;;
5549;SDS011;2798;42.716;23.256;2023-04-24T04:34:42;9.60;;;5.17;;
5549;SDS011;2798;42.716;23.256;2023-04-24T04:37:10;10.03;;;5.27;;
5549;SDS011;2798;42.716;23.256;2023-04-24T04:39:36;8.73;;;5.27;;
5549;SDS011;2798;42.716;23.256;2023-04-24T04:42:01;12.70;;;6.40;;
5549;SDS011;2798;42.716;23.256;2023-04-24T04:44:27;7.27;;;5.00;;
5549;SDS011;2798;42.716;23.256;2023-04-24T04:46:52;16.20;;;5.97;;
5549;SDS011;2798;42.716;23.256;2023-04-24T04:49:21;14.40;;;6.93;;
5549;SDS011;2798;42.716;23.256;2023-04-24T04:51:46;12.37;;;7.23;;
5549;SDS011;2798;42.716;23.256;2023-04-24T04:54:12;25.13;;;8.40;;
5549;SDS011;2798;42.716;23.256;2023-04-24T04:56:37;24.00;;;9.80;;
5549;SDS011;2798;42.716;23.256;2023-04-24T04:59:02;15.87;;;7.23;;
5549;SDS011;2798;42.716;23.256;2023-04-24T05:01:28;21.97;;;8.47;;
5549;SDS011;2798;42.716;23.256;2023-04-24T05:03:53;13.37;;;7.30;;
5549;SDS011;2798;42.716;23.256;2023-04-24T05:06:18;12.93;;;7.50;;
5549;SDS011;2798;42.716;23.256;2023-04-24T05:08:43;12.87;;;8.13;;
5549;SDS011;2798;42.716;23.256;2023-04-24T05:11:09;13.00;;;7.63;;
5549;SDS011;2798;42.716;23.256;2023-04-24T05:13:34;15.03;;;7.30;;
5549;SDS011;2798;42.716;23.256;2023-04-24T05:16:00;7.67;;;5.90;;
5549;SDS011;2798;42.716;23.256;2023-04-24T05:18:25;15.70;;;7.10;;
5549;SDS011;2798;42.716;23.256;2023-04-24T05:20:50;9.63;;;5.40;;
5549;SDS011;2798;42.716;23.256;2023-04-24T05:23:16;13.60;;;6.27;;
5549;SDS011;2798;42.716;23.256;2023-04-24T05:25:41;14.57;;;6.87;;
5549;SDS011;2798;42.716;23.256;2023-04-24T05:28:06;18.33;;;6.57;;
5549;SDS011;2798;42.716;23.256;2023-04-24T05:30:32;9.93;;;6.97;;
5549;SDS011;2798;42.716;23.256;2023-04-24T05:32:57;12.40;;;6.60;;
5549;SDS011;2798;42.716;23.256;2023-04-24T05:35:22;9.97;;;6.23;;
5549;SDS011;2798;42.716;23.256;2023-04-24T05:37:47;14.30;;;5.87;;
5549;SDS011;2798;42.716;23.256;2023-04-24T05:40:13;8.87;;;5.90;;
5549;SDS011;2798;42.716;23.256;2023-04-24T05:42:38;11.73;;;5.80;;
5549;SDS011;2798;42.716;23.256;2023-04-24T05:45:04;8.00;;;5.73;;
5549;SDS011;2798;42.716;23.256;2023-04-24T05:47:29;10.40;;;5.93;;
5549;SDS011;2798;42.716;23.256;2023-04-24T05:49:54;9.73;;;5.60;;
5549;SDS011;2798;42.716;23.256;2023-04-24T05:52:20;9.97;;;5.83;;
5549;SDS011;2798;42.716;23.256;2023-04-24T05:54:45;8.70;;;5.97;;
5549;SDS011;2798;42.716;23.256;2023-04-24T05:57:10;10.73;;;5.60;;
5549;SDS011;2798;42.716;23.256;2023-04-24T05:59:36;16.30;;;5.47;;
5549;SDS011;2798;42.716;23.256;2023-04-24T06:02:02;7.97;;;5.70;;
5549;SDS011;2798;42.716;23.256;2023-04-24T06:04:28;8.93;;;5.07;;
5549;SDS011;2798;42.716;23.256;2023-04-24T06:06:53;16.20;;;5.50;;
5549;SDS011;2798;42.716;23.256;2023-04-24T06:09:21;9.10;;;5.63;;
5549;SDS011;2798;42.716;23.256;2023-04-24T06:11:47;8.07;;;5.10;;
5549;SDS011;2798;42.716;23.256;2023-04-24T06:14:12;9.60;;;5.53;;
5549;SDS011;2798;42.716;23.256;2023-04-24T06:16:37;16.90;;;6.23;;
5549;SDS011;2798;42.716;23.256;2023-04-24T06:19:03;16.23;;;6.47;;
5549;SDS011;2798;42.716;23.256;2023-04-24T06:21:29;10.27;;;6.27;;
5549;SDS011;2798;42.716;23.256;2023-04-24T06:23:54;11.03;;;5.90;;
5549;SDS011;2798;42.716;23.256;2023-04-24T06:26:21;7.70;;;5.63;;
5549;SDS011;2798;42.716;23.256;2023-04-24T06:28:47;8.80;;;5.43;;
5549;SDS011;2798;42.716;23.256;2023-04-24T06:31:12;10.30;;;5.93;;
5549;SDS011;2798;42.716;23.256;2023-04-24T06:33:37;9.50;;;5.53;;
5549;SDS011;2798;42.716;23.256;2023-04-24T06:36:03;9.03;;;5.90;;
5549;SDS011;2798;42.716;23.256;2023-04-24T06:38:29;11.27;;;6.60;;
5549;SDS011;2798;42.716;23.256;2023-04-24T06:40:54;8.60;;;6.17;;
5549;SDS011;2798;42.716;23.256;2023-04-24T06:43:19;10.73;;;6.47;;
5549;SDS011;2798;42.716;23.256;2023-04-24T06:45:45;11.20;;;6.43;;
5549;SDS011;2798;42.716;23.256;2023-04-24T06:48:12;10.53;;;6.97;;
5549;SDS011;2798;42.716;23.256;2023-04-24T06:50:37;11.87;;;6.40;;
5549;SDS011;2798;42.716;23.256;2023-04-24T06:53:02;13.73;;;6.63;;
5549;SDS011;2798;42.716;23.256;2023-04-24T06:55:28;11.67;;;7.07;;
5549;SDS011;2798;42.716;23.256;2023-04-24T06:57:53;12.50;;;6.17;;
5549;SDS011;2798;42.716;23.256;2023-04-24T07:00:18;13.97;;;7.90;;
5549;SDS011;2798;42.716;23.256;2023-04-24T07:02:43;9.43;;;6.40;;
5549;SDS011;2798;42.716;23.256;2023-04-24T07:05:09;10.63;;;6.00;;
5549;SDS011;2798;42.716;23.256;2023-04-24T07:07:34;11.27;;;7.00;;
5549;SDS011;2798;42.716;23.256;2023-04-24T07:10:02;9.50;;;6.57;;
5549;SDS011;2798;42.716;23.256;2023-04-24T07:12:28;14.30;;;7.00;;
5549;SDS011;2798;42.716;23.256;2023-04-24T07:14:53;11.27;;;7.50;;
5549;SDS011;2798;42.716;23.256;2023-04-24T07:17:19;9.40;;;6.77;;
5549;SDS011;2798;42.716;23.256;2023-04-24T07:19:44;14.97;;;7.00;;
5549;SDS011;2798;42.716;23.256;2023-04-24T07:22:10;12.60;;;6.80;;
5549;SDS011;2798;42.716;23.256;2023-04-24T07:24:41;18.07;;;7.60;;
5549;SDS011;2798;42.716;23.256;2023-04-24T07:27:06;12.20;;;7.90;;
5549;SDS011;2798;42.716;23.256;2023-04-24T07:29:32;9.33;;;6.47;;
5549;SDS011;2798;42.716;23.256;2023-04-24T07:31:57;11.50;;;6.80;;
5549;SDS011;2798;42.716;23.256;2023-04-24T07:34:22;9.03;;;6.90;;
5549;SDS011;2798;42.716;23.256;2023-04-24T07:36:48;10.77;;;6.00;;
5549;SDS011;2798;42.716;23.256;2023-04-24T07:39:13;14.63;;;5.63;;
5549;SDS011;2798;42.716;23.256;2023-04-24T07:41:38;9.77;;;6.33;;
5549;SDS011;2798;42.716;23.256;2023-04-24T07:44:03;8.87;;;5.80;;
5549;SDS011;2798;42.716;23.256;2023-04-24T07:46:29;11.67;;;5.97;;
5549;SDS011;2798;42.716;23.256;2023-04-24T07:48:55;12.67;;;5.80;;
5549;SDS011;2798;42.716;23.256;2023-04-24T07:51:20;14.80;;;5.90;;
5549;SDS011;2798;42.716;23.256;2023-04-24T07:53:46;8.93;;;6.30;;
5549;SDS011;2798;42.716;23.256;2023-04-24T07:56:11;7.57;;;5.73;;
5549;SDS011;2798;42.716;23.256;2023-04-24T07:58:36;7.50;;;6.30;;
5549;SDS011;2798;42.716;23.256;2023-04-24T08:01:01;7.80;;;6.90;;
5549;SDS011;2798;42.716;23.256;2023-04-24T08:03:28;7.90;;;6.30;;
5549;SDS011;2798;42.716;23.256;2023-04-24T08:05:53;10.40;;;5.83;;
5549;SDS011;2798;42.716;23.256;2023-04-24T08:08:20;10.30;;;5.83;;
5549;SDS011;2798;42.716;23.256;2023-04-24T08:10:46;9.50;;;5.90;;
5549;SDS011;2798;42.716;23.256;2023-04-24T08:13:11;9.20;;;5.77;;
5549;SDS011;2798;42.716;23.256;2023-04-24T08:15:36;10.30;;;6.20;;
5549;SDS011;2798;42.716;23.256;2023-04-24T08:18:02;10.30;;;6.10;;
5549;SDS011;2798;42.716;23.256;2023-04-24T08:20:27;7.10;;;5.40;;
5549;SDS011;2798;42.716;23.256;2023-04-24T08:22:52;6.13;;;5.40;;
5549;SDS011;2798;42.716;23.256;2023-04-24T08:25:19;10.00;;;6.27;;
5549;SDS011;2798;42.716;23.256;2023-04-24T08:27:44;9.50;;;5.73;;
5549;SDS011;2798;42.716;23.256;2023-04-24T08:30:09;11.40;;;6.03;;
5549;SDS011;2798;42.716;23.256;2023-04-24T08:32:35;7.63;;;5.50;;
5549;SDS011;2798;42.716;23.256;2023-04-24T08:35:00;8.43;;;5.57;;
5549;SDS011;2798;42.716;23.256;2023-04-24T08:37:26;7.20;;;5.40;;
5549;SDS011;2798;42.716;23.256;2023-04-24T08:39:52;7.10;;;4.97;;
5549;SDS011;2798;42.716;23.256;2023-04-24T08:42:18;7.33;;;5.10;;
5549;SDS011;2798;42.716;23.256;2023-04-24T08:44:44;6.40;;;5.30;;
5549;SDS011;2798;42.716;23.256;2023-04-24T08:47:10;6.03;;;4.67;;
5549;SDS011;2798;42.716;23.256;2023-04-24T08:49:35;12.50;;;4.90;;
5549;SDS011;2798;42.716;23.256;2023-04-24T08:52:01;5.80;;;5.20;;
5549;SDS011;2798;42.716;23.256;2023-04-24T08:54:27;9.23;;;5.00;;
5549;SDS011;2798;42.716;23.256;2023-04-24T08:56:53;14.03;;;4.90;;
5549;SDS011;2798;42.716;23.256;2023-04-24T08:59:18;8.60;;;5.30;;
5549;SDS011;2798;42.716;23.256;2023-04-24T09:01:45;5.50;;;4.93;;
5549;SDS011;2798;42.716;23.256;2023-04-24T09:04:10;9.80;;;5.40;;
5549;SDS011;2798;42.716;23.256;2023-04-24T09:06:37;7.43;;;4.90;;
5549;SDS011;2798;42.716;23.256;2023-04-24T09:09:02;8.30;;;6.07;;
5549;SDS011;2798;42.716;23.256;2023-04-24T09:11:29;8.97;;;5.43;;
5549;SDS011;2798;42.716;23.256;2023-04-24T09:13:55;8.50;;;5.00;;
5549;SDS011;2798;42.716;23.256;2023-04-24T09:16:21;12.77;;;5.50;;
5549;SDS011;2798;42.716;23.256;2023-04-24T09:18:48;7.00;;;5.20;;
5549;SDS011;2798;42.716;23.256;2023-04-24T09:21:13;7.60;;;5.07;;
5549;SDS011;2798;42.716;23.256;2023-04-24T09:23:39;11.23;;;4.70;;
5549;SDS011;2798;42.716;23.256;2023-04-24T09:26:04;9.17;;;5.00;;
5549;SDS011;2798;42.716;23.256;2023-04-24T09:28:34;12.60;;;5.23;;
5549;SDS011;2798;42.716;23.256;2023-04-24T09:33:31;10.20;;;5.20;;
5549;SDS011;2798;42.716;23.256;2023-04-24T09:35:57;8.93;;;5.27;;
5549;SDS011;2798;42.716;23.256;2023-04-24T09:38:30;7.23;;;4.70;;
5549;SDS011;2798;42.716;23.256;2023-04-24T09:40:58;8.07;;;4.63;;
5549;SDS011;2798;42.716;23.256;2023-04-24T09:43:24;11.30;;;5.80;;
5549;SDS011;2798;42.716;23.256;2023-04-24T09:45:51;9.80;;;4.57;;
5549;SDS011;2798;42.716;23.256;2023-04-24T09:48:20;7.23;;;4.37;;
5549;SDS011;2798;42.716;23.256;2023-04-24T09:50:54;5.93;;;4.57;;
5549;SDS011;2798;42.716;23.256;2023-04-24T09:53:23;8.00;;;4.87;;
5549;SDS011;2798;42.716;23.256;2023-04-24T09:55:48;7.73;;;5.60;;
5549;SDS011;2798;42.716;23.256;2023-04-24T09:58:15;8.80;;;5.30;;
5549;SDS011;2798;42.716;23.256;2023-04-24T10:00:40;5.03;;;4.53;;
5549;SDS011;2798;42.716;23.256;2023-04-24T10:03:06;7.53;;;5.00;;
5549;SDS011;2798;42.716;23.256;2023-04-24T10:05:31;7.77;;;4.10;;
5549;SDS011;2798;42.716;23.256;2023-04-24T10:08:04;5.23;;;4.73;;
5549;SDS011;2798;42.716;23.256;2023-04-24T10:10:35;6.70;;;4.03;;
5549;SDS011;2798;42.716;23.256;2023-04-24T10:13:03;10.00;;;5.30;;
5549;SDS011;2798;42.716;23.256;2023-04-24T10:15:29;7.97;;;4.60;;
5549;SDS011;2798;42.716;23.256;2023-04-24T10:17:54;5.10;;;4.50;;
5549;SDS011;2798;42.716;23.256;2023-04-24T10:20:21;6.40;;;4.30;;
5549;SDS011;2798;42.716;23.256;2023-04-24T10:22:47;7.60;;;5.13;;
5549;SDS011;2798;42.716;23.256;2023-04-24T10:25:15;4.93;;;4.03;;
5549;SDS011;2798;42.716;23.256;2023-04-24T10:27:41;6.27;;;3.93;;
5549;SDS011;2798;42.716;23.256;2023-04-24T10:30:06;8.10;;;4.70;;
5549;SDS011;2798;42.716;23.256;2023-04-24T10:32:32;6.93;;;4.60;;
5549;SDS011;2798;42.716;23.256;2023-04-24T10:34:57;6.20;;;4.03;;
5549;SDS011;2798;42.716;23.256;2023-04-24T10:37:23;8.50;;;4.00;;
5549;SDS011;2798;42.716;23.256;2023-04-24T10:39:49;7.50;;;4.27;;
5549;SDS011;2798;42.716;23.256;2023-04-24T10:42:16;6.23;;;4.27;;
5549;SDS011;2798;42.716;23.256;2023-04-24T10:44:41;6.17;;;4.40;;
5549;SDS011;2798;42.716;23.256;2023-04-24T10:47:07;5.37;;;4.10;;
5549;SDS011;2798;42.716;23.256;2023-04-24T10:49:37;7.13;;;3.97;;
5549;SDS011;2798;42.716;23.256;2023-04-24T10:52:03;7.50;;;4.50;;
5549;SDS011;2798;42.716;23.256;2023-04-24T10:54:35;5.43;;;4.37;;
5549;SDS011;2798;42.716;23.256;2023-04-24T10:59:44;6.73;;;4.13;;
5549;SDS011;2798;42.716;23.256;2023-04-24T11:02:10;5.03;;;3.80;;
5549;SDS011;2798;42.716;23.256;2023-04-24T11:04:35;9.03;;;4.03;;
5549;SDS011;2798;42.716;23.256;2023-04-24T11:07:02;5.40;;;4.03;;
5549;SDS011;2798;42.716;23.256;2023-04-24T11:09:28;8.13;;;4.20;;
5549;SDS011;2798;42.716;23.256;2023-04-24T11:14:30;9.73;;;4.47;;
5549;SDS011;2798;42.716;23.256;2023-04-24T11:17:27;6.00;;;4.07;;
5549;SDS011;2798;42.716;23.256;2023-04-24T11:19:53;6.60;;;4.00;;
5549;SDS011;2798;42.716;23.256;2023-04-24T11:22:25;7.93;;;4.10;;
5549;SDS011;2798;42.716;23.256;2023-04-24T11:24:53;5.87;;;3.60;;
5549;SDS011;2798;42.716;23.256;2023-04-24T11:27:19;7.10;;;3.27;;
5549;SDS011;2798;42.716;23.256;2023-04-24T11:30:03;4.20;;;3.13;;
5549;SDS011;2798;42.716;23.256;2023-04-24T11:37:22;4.13;;;3.73;;
5549;SDS011;2798;42.716;23.256;2023-04-24T11:39:50;5.10;;;3.53;;
5549;SDS011;2798;42.716;23.256;2023-04-24T11:42:15;4.50;;;3.03;;
5549;SDS011;2798;42.716;23.256;2023-04-24T11:44:41;3.87;;;3.30;;
5549;SDS011;2798;42.716;23.256;2023-04-24T11:47:06;3.30;;;3.00;;
5549;SDS011;2798;42.716;23.256;2023-04-24T11:49:33;3.30;;;3.00;;
5549;SDS011;2798;42.716;23.256;2023-04-24T11:51:59;5.50;;;2.90;;
5549;SDS011;2798;42.716;23.256;2023-04-24T11:54:25;3.93;;;3.33;;
5549;SDS011;2798;42.716;23.256;2023-04-24T11:56:50;4.40;;;3.77;;
5549;SDS011;2798;42.716;23.256;2023-04-24T11:59:16;3.33;;;3.10;;
5549;SDS011;2798;42.716;23.256;2023-04-24T12:01:48;3.90;;;3.37;;
5549;SDS011;2798;42.716;23.256;2023-04-24T12:04:14;3.97;;;3.30;;
5549;SDS011;2798;42.716;23.256;2023-04-24T12:06:40;2.70;;;2.50;;
5549;SDS011;2798;42.716;23.256;2023-04-24T12:09:05;3.30;;;3.00;;
5549;SDS011;2798;42.716;23.256;2023-04-24T12:11:31;5.77;;;4.50;;
5549;SDS011;2798;42.716;23.256;2023-04-24T12:13:56;5.93;;;3.77;;
5549;SDS011;2798;42.716;23.256;2023-04-24T12:16:23;5.07;;;3.67;;
5549;SDS011;2798;42.716;23.256;2023-04-24T12:18:51;5.17;;;3.23;;
5549;SDS011;2798;42.716;23.256;2023-04-24T12:21:16;3.30;;;2.93;;
5549;SDS011;2798;42.716;23.256;2023-04-24T12:23:42;3.43;;;3.13;;
5549;SDS011;2798;42.716;23.256;2023-04-24T12:26:08;4.37;;;3.97;;
5549;SDS011;2798;42.716;23.256;2023-04-24T12:28:36;7.47;;;3.53;;
5549;SDS011;2798;42.716;23.256;2023-04-24T12:31:02;11.00;;;3.87;;
5549;SDS011;2798;42.716;23.256;2023-04-24T12:33:27;3.43;;;3.13;;
5549;SDS011;2798;42.716;23.256;2023-04-24T12:35:52;5.93;;;3.70;;
5549;SDS011;2798;42.716;23.256;2023-04-24T12:38:25;4.03;;;3.00;;
5549;SDS011;2798;42.716;23.256;2023-04-24T12:41:01;4.00;;;3.03;;
5549;SDS011;2798;42.716;23.256;2023-04-24T12:43:26;7.00;;;3.30;;
5549;SDS011;2798;42.716;23.256;2023-04-24T12:45:52;4.83;;;3.17;;
5549;SDS011;2798;42.716;23.256;2023-04-24T12:48:17;6.00;;;3.37;;
5549;SDS011;2798;42.716;23.256;2023-04-24T12:50:43;4.73;;;3.43;;
5549;SDS011;2798;42.716;23.256;2023-04-24T12:53:08;4.10;;;3.70;;
5549;SDS011;2798;42.716;23.256;2023-04-24T12:55:34;4.60;;;3.57;;
5549;SDS011;2798;42.716;23.256;2023-04-24T12:57:59;5.53;;;3.40;;
5549;SDS011;2798;42.716;23.256;2023-04-24T13:00:24;5.10;;;3.47;;
5549;SDS011;2798;42.716;23.256;2023-04-24T13:02:50;5.90;;;4.07;;
5549;SDS011;2798;42.716;23.256;2023-04-24T13:05:15;4.27;;;3.87;;
5549;SDS011;2798;42.716;23.256;2023-04-24T13:07:40;3.80;;;2.93;;
5549;SDS011;2798;42.716;23.256;2023-04-24T13:10:06;3.73;;;3.20;;
5549;SDS011;2798;42.716;23.256;2023-04-24T13:12:32;5.00;;;3.23;;
5549;SDS011;2798;42.716;23.256;2023-04-24T13:14:57;3.70;;;3.30;;
5549;SDS011;2798;42.716;23.256;2023-04-24T13:17:23;5.30;;;3.57;;
5549;SDS011;2798;42.716;23.256;2023-04-24T13:19:49;4.47;;;3.03;;
5549;SDS011;2798;42.716;23.256;2023-04-24T13:22:15;4.00;;;3.40;;
5549;SDS011;2798;42.716;23.256;2023-04-24T13:24:40;6.10;;;3.00;;
5549;SDS011;2798;42.716;23.256;2023-04-24T13:27:06;3.63;;;3.17;;
5549;SDS011;2798;42.716;23.256;2023-04-24T13:29:32;3.53;;;3.10;;
5549;SDS011;2798;42.716;23.256;2023-04-24T13:31:57;5.27;;;3.10;;
5549;SDS011;2798;42.716;23.256;2023-04-24T13:34:23;4.10;;;2.97;;
5549;SDS011;2798;42.716;23.256;2023-04-24T13:36:49;4.73;;;3.57;;
5549;SDS011;2798;42.716;23.256;2023-04-24T13:39:15;3.07;;;2.80;;
5549;SDS011;2798;42.716;23.256;2023-04-24T13:41:41;4.40;;;3.10;;
5549;SDS011;2798;42.716;23.256;2023-04-24T13:44:07;5.93;;;3.37;;
5549;SDS011;2798;42.716;23.256;2023-04-24T13:46:33;8.13;;;3.37;;
5549;SDS011;2798;42.716;23.256;2023-04-24T13:48:58;3.43;;;3.00;;
5549;SDS011;2798;42.716;23.256;2023-04-24T13:51:24;4.90;;;2.97;;
5549;SDS011;2798;42.716;23.256;2023-04-24T13:53:52;4.57;;;3.13;;
5549;SDS011;2798;42.716;23.256;2023-04-24T13:56:17;5.83;;;3.30;;
5549;SDS011;2798;42.716;23.256;2023-04-24T13:58:42;3.57;;;3.00;;
5549;SDS011;2798;42.716;23.256;2023-04-24T14:01:08;5.63;;;3.20;;
5549;SDS011;2798;42.716;23.256;2023-04-24T14:03:33;3.27;;;2.80;;
5549;SDS011;2798;42.716;23.256;2023-04-24T14:05:58;3.70;;;2.77;;
5549;SDS011;2798;42.716;23.256;2023-04-24T14:08:24;3.43;;;3.13;;
5549;SDS011;2798;42.716;23.256;2023-04-24T14:10:50;3.93;;;3.03;;
5549;SDS011;2798;42.716;23.256;2023-04-24T14:13:15;3.40;;;3.00;;
5549;SDS011;2798;42.716;23.256;2023-04-24T14:15:41;4.00;;;3.13;;
5549;SDS011;2798;42.716;23.256;2023-04-24T14:18:06;4.20;;;2.93;;
5549;SDS011;2798;42.716;23.256;2023-04-24T14:20:31;7.13;;;3.03;;
5549;SDS011;2798;42.716;23.256;2023-04-24T14:22:57;4.37;;;3.20;;
5549;SDS011;2798;42.716;23.256;2023-04-24T14:25:25;3.57;;;3.10;;
5549;SDS011;2798;42.716;23.256;2023-04-24T14:27:50;3.10;;;2.80;;
5549;SDS011;2798;42.716;23.256;2023-04-24T14:30:15;3.07;;;2.87;;
5549;SDS011;2798;42.716;23.256;2023-04-24T14:32:41;3.30;;;2.43;;
5549;SDS011;2798;42.716;23.256;2023-04-24T14:35:06;5.03;;;3.00;;
5549;SDS011;2798;42.716;23.256;2023-04-24T14:37:32;3.43;;;2.27;;
5549;SDS011;2798;42.716;23.256;2023-04-24T14:39:57;3.23;;;2.47;;
5549;SDS011;2798;42.716;23.256;2023-04-24T14:42:22;3.90;;;3.07;;
5549;SDS011;2798;42.716;23.256;2023-04-24T14:44:48;4.10;;;3.00;;
5549;SDS011;2798;42.716;23.256;2023-04-24T14:47:13;6.17;;;3.50;;
5549;SDS011;2798;42.716;23.256;2023-04-24T14:49:38;3.50;;;3.20;;
5549;SDS011;2798;42.716;23.256;2023-04-24T14:52:04;5.07;;;3.37;;
5549;SDS011;2798;42.716;23.256;2023-04-24T14:54:29;4.10;;;3.10;;
5549;SDS011;2798;42.716;23.256;2023-04-24T14:56:55;4.93;;;2.93;;
5549;SDS011;2798;42.716;23.256;2023-04-24T14:59:22;4.80;;;3.37;;
5549;SDS011;2798;42.716;23.256;2023-04-24T15:01:47;5.03;;;3.13;;